Time;durP1;ratioP1;P1;durP2;ratioP2;P2;SDS_P1;SDS_P2;PMS_P1;PMS_P2;Temp;Humidity;BMP_temperature;BMP_pressure;BME280_temperature;BME280_humidity;BME280_pressure;Samples;Min_cycle;Max_cycle;Signal;HPM_P1;HPM_P2
2022/08/02 08:23:49;;;;;;;;;;;14.20;69.10;;;;;;5074015;28;20019;-63
2022/08/02 08:26:15;;;;;;;;;;;14.20;69.50;;;;;;5070554;28;19927;-65
2022/08/02 08:28:42;;;;;;;;;;;14.10;69.80;;;;;;5067773;28;19915;-65
2022/08/02 08:31:08;;;;;;;;;;;14.00;69.80;;;;;;5070246;28;19916;-64
2022/08/02 08:33:35;;;;;;;;;;;14.00;70.10;;;;;;5062380;28;20004;-62
2022/08/02 08:36:03;;;;;;;;;;;13.90;70.70;;;;;;5065823;28;19912;-63
2022/08/02 08:38:29;;;;;;;;;;;13.90;71.10;;;;;;5061364;28;19966;-63
2022/08/02 08:40:56;;;;;;;;;;;13.90;71.50;;;;;;5066359;28;19908;-63
2022/08/02 08:43:22;;;;;;;;;;;13.90;71.50;;;;;;5069069;28;19916;-63
2022/08/02 08:45:50;;;;;;;;;;;13.90;71.70;;;;;;5067931;28;19923;-65
2022/08/02 08:53:27;;;;;;;;;;;13.90;72.10;;;;;;1523497;26;19926;-66
2022/08/02 08:55:56;;;;;;;;;;;13.90;72.30;;;;;;5084269;28;19912;-66
2022/08/02 08:58:23;;;;;;;;;;;13.90;72.60;;;;;;5097394;28;19908;-67
2022/08/02 09:00:49;;;;;;;;;;;13.80;72.60;;;;;;5105596;27;19972;-67
2022/08/02 09:03:16;;;;;;;;;;;13.80;72.70;;;;;;5106323;27;19916;-69
2022/08/02 09:05:45;;;;;;;;;;;13.80;73.00;;;;;;5105214;28;19926;-71
2022/08/02 09:08:13;;;;;;;;;;;13.70;73.10;;;;;;5105601;27;19912;-68
2022/08/02 09:10:46;;;;;;;;;;;13.70;73.40;;;;;;5104255;27;19908;-69
2022/08/02 09:13:17;;;;;;;;;;;13.70;73.40;;;;;;5110830;27;19912;-67
2022/08/02 09:15:44;;;;;;;;;;;13.70;73.50;;;;;;5090439;27;19984;-66
2022/08/02 09:18:11;;;;;;;;;;;13.70;72.90;;;;;;5102632;28;19955;-67
2022/08/02 09:20:57;;;;;;;;;;;13.70;72.60;;;;;;5106415;28;20246;-68
2022/08/02 09:23:24;;;;;;;;;;;13.70;71.50;;;;;;5082180;28;19920;-65
2022/08/02 09:25:56;;;;;;;;;;;13.70;70.10;;;;;;5096662;28;19916;-66
2022/08/02 09:28:30;;;;;;;;;;;13.70;69.00;;;;;;5100883;28;19911;-66
2022/08/02 09:30:57;;;;;;;;;;;13.70;68.50;;;;;;5108800;28;19908;-66
2022/08/02 09:33:25;;;;;;;;;;;13.70;68.50;;;;;;5103421;28;19908;-66
2022/08/02 09:35:58;;;;;;;;;;;13.70;68.00;;;;;;5085439;28;19912;-66
2022/08/02 09:38:24;;;;;;;;;;;13.70;66.90;;;;;;5071887;28;19912;-66
2022/08/02 09:40:51;;;;;;;;;;;13.70;66.30;;;;;;5081402;28;19915;-67
2022/08/02 09:43:19;;;;;;;;;;;13.70;66.60;;;;;;5106414;28;19995;-66
2022/08/02 09:45:46;;;;;;;;;;;13.70;65.70;;;;;;5106410;28;19948;-66
2022/08/02 09:48:12;;;;;;;;;;;13.70;65.70;;;;;;5108770;28;19914;-66
2022/08/02 09:50:39;;;;;;;;;;;13.70;65.00;;;;;;5105768;28;19912;-66
2022/08/02 09:53:11;;;;;;;;;;;13.70;64.50;;;;;;5098430;28;19947;-66
2022/08/02 09:55:38;;;;;;;;;;;13.70;64.90;;;;;;5078405;28;20323;-67
2022/08/02 09:58:18;;;;;;;;;;;13.70;64.20;;;;;;5086822;28;19914;-68
2022/08/02 10:00:54;;;;;;;;;;;13.70;63.40;;;;;;5077394;28;19918;-67
2022/08/02 10:03:20;;;;;;;;;;;13.70;64.10;;;;;;5111477;28;20321;-68
2022/08/02 10:05:47;;;;;;;;;;;13.70;63.90;;;;;;5121550;28;19920;-66
2022/08/02 10:08:14;;;;;;;;;;;13.70;63.00;;;;;;5088896;28;19923;-66
2022/08/02 10:10:41;;;;;;;;;;;13.70;63.40;;;;;;5084940;28;19907;-65
2022/08/02 10:13:08;;;;;;;;;;;13.70;62.70;;;;;;5110055;28;19918;-67
2022/08/02 10:15:35;;;;;;;;;;;13.70;62.90;;;;;;5104546;28;19911;-65
2022/08/02 10:18:02;;;;;;;;;;;13.70;62.10;;;;;;5107691;27;19911;-65
2022/08/02 10:20:28;;;;;;;;;;;13.70;61.90;;;;;;5113163;27;19908;-66
2022/08/02 10:22:55;;;;;;;;;;;13.70;62.10;;;;;;5112410;27;19915;-66
2022/08/02 10:25:21;;;;;;;;;;;13.70;61.70;;;;;;5094605;28;19916;-65
2022/08/02 10:27:48;;;;;;;;;;;13.70;60.90;;;;;;5110898;28;19908;-69
2022/08/02 10:30:15;;;;;;;;;;;13.70;60.90;;;;;;5088577;28;19916;-65
2022/08/02 10:32:47;;;;;;;;;;;13.70;60.80;;;;;;5093175;28;19911;-65
2022/08/02 10:35:17;;;;;;;;;;;13.70;60.80;;;;;;5087964;28;19915;-66
2022/08/02 10:37:44;;;;;;;;;;;13.70;60.80;;;;;;5093333;28;19918;-65
2022/08/02 10:40:22;;;;;;;;;;;13.70;60.40;;;;;;5091299;28;19907;-69
2022/08/02 10:42:49;;;;;;;;;;;13.70;60.00;;;;;;5109970;28;20247;-64
2022/08/02 10:45:19;;;;;;;;;;;13.70;60.20;;;;;;5080896;28;19919;-65
2022/08/02 10:48:18;;;;;;;;;;;13.70;59.90;;;;;;5105784;28;19962;-65
2022/08/02 10:50:45;;;;;;;;;;;13.70;60.00;;;;;;5059331;27;20432;-66
2022/08/02 10:53:30;;;;;;;;;;;13.70;59.20;;;;;;5110485;28;19904;-66
2022/08/02 10:56:00;;;;;;;;;;;13.70;59.50;;;;;;5093964;28;20012;-65
2022/08/02 10:58:28;;;;;;;;;;;13.70;59.40;;;;;;5095321;27;20060;-65
2022/08/02 11:00:56;;;;;;;;;;;13.70;59.00;;;;;;5112413;27;19916;-66
2022/08/02 11:03:28;;;;;;;;;;;13.70;58.80;;;;;;5115282;27;20376;-66
2022/08/02 11:06:11;;;;;;;;;;;13.70;59.90;;;;;;5111690;27;19916;-66
2022/08/02 11:08:37;;;;;;;;;;;13.70;59.40;;;;;;5117221;27;19918;-66
2022/08/02 11:11:10;;;;;;;;;;;13.70;58.80;;;;;;5076146;28;20143;-66
2022/08/02 11:13:54;;;;;;;;;;;13.70;59.00;;;;;;5118383;27;20460;-67
2022/08/02 11:16:21;;;;;;;;;;;13.70;58.50;;;;;;5112605;27;19907;-66
2022/08/02 11:18:51;;;;;;;;;;;13.70;59.20;;;;;;5109343;27;20281;-67
2022/08/02 11:21:21;;;;;;;;;;;13.70;58.60;;;;;;5104419;28;20005;-65
2022/08/02 11:23:48;;;;;;;;;;;13.60;59.10;;;;;;5118010;27;20257;-65
2022/08/02 11:26:30;;;;;;;;;;;13.70;59.00;;;;;;5120070;27;19921;-65
2022/08/02 11:28:57;;;;;;;;;;;13.70;58.50;;;;;;5122894;27;20296;-65
2022/08/02 11:31:24;;;;;;;;;;;13.70;58.20;;;;;;5093423;28;19911;-65
2022/08/02 11:33:50;;;;;;;;;;;13.70;58.50;;;;;;5086898;27;19955;-65
2022/08/02 11:36:17;;;;;;;;;;;13.70;58.60;;;;;;5095304;28;19990;-65
2022/08/02 11:38:44;;;;;;;;;;;13.70;58.80;;;;;;5112547;27;20390;-65
2022/08/02 11:41:19;;;;;;;;;;;13.70;58.30;;;;;;5113162;27;19915;-66
2022/08/02 11:43:46;;;;;;;;;;;13.70;58.30;;;;;;5095465;28;19990;-65
2022/08/02 11:46:13;;;;;;;;;;;13.70;58.40;;;;;;5116104;27;20392;-65
2022/08/02 11:48:40;;;;;;;;;;;13.70;58.70;;;;;;5113855;27;19912;-65
2022/08/02 12:19:45;;;;;;;;;;;13.50;61.20;;;;;;5089590;27;19932;-65
2022/08/02 12:22:12;;;;;;;;;;;13.50;60.90;;;;;;5064642;28;19935;-65
2022/08/02 12:24:40;;;;;;;;;;;13.50;60.80;;;;;;5069793;28;19908;-65
2022/08/02 12:27:06;;;;;;;;;;;13.50;60.70;;;;;;5069941;28;20038;-65
2022/08/02 12:29:34;;;;;;;;;;;13.50;60.80;;;;;;5066753;28;19909;-65
2022/08/02 12:32:00;;;;;;;;;;;13.50;61.00;;;;;;5062643;28;20294;-65
2022/08/02 12:34:27;;;;;;;;;;;13.50;61.30;;;;;;5052614;28;19947;-65
2022/08/02 12:36:57;;;;;;;;;;;13.50;60.70;;;;;;5068761;28;19924;-65
2022/08/02 12:39:37;;;;;;;;;;;13.40;60.30;;;;;;5067091;28;19960;-65
2022/08/02 12:42:04;;;;;;;;;;;13.50;60.50;;;;;;5068807;28;20286;-67
2022/08/02 12:44:31;;;;;;;;;;;13.40;61.30;;;;;;5068908;28;19911;-67
2022/08/02 12:47:01;;;;;;;;;;;13.50;61.70;;;;;;5069310;28;19912;-68
2022/08/02 12:49:27;;;;;;;;;;;13.40;61.50;;;;;;5049076;28;19919;-68
2022/08/02 12:51:54;;;;;;;;;;;13.40;60.80;;;;;;5068229;28;19912;-67
2022/08/02 12:54:25;;;;;;;;;;;13.40;60.20;;;;;;5065466;28;19908;-68
2022/08/02 12:56:52;;;;;;;;;;;13.40;59.10;;;;;;5054920;28;19909;-66
2022/08/02 12:59:38;;;;;;;;;;;13.40;59.60;;;;;;5056819;28;20114;-66
2022/08/02 13:02:06;;;;;;;;;;;13.40;60.40;;;;;;5079113;28;20340;-66
2022/08/02 13:04:32;;;;;;;;;;;13.40;60.50;;;;;;5079399;28;19905;-66
2022/08/02 13:06:59;;;;;;;;;;;13.40;61.30;;;;;;5089473;28;19935;-66
2022/08/02 13:09:26;;;;;;;;;;;13.30;61.30;;;;;;5070094;28;19908;-66
2022/08/02 13:11:52;;;;;;;;;;;13.30;61.50;;;;;;5080936;28;19908;-66
2022/08/02 13:14:19;;;;;;;;;;;13.30;61.80;;;;;;5081058;28;19916;-66
2022/08/02 13:16:46;;;;;;;;;;;13.30;61.40;;;;;;5065393;28;19918;-66
2022/08/02 13:21:37;;;;;;;;;;;13.30;62.20;;;;;;5106397;27;20373;-66
2022/08/02 13:24:04;;;;;;;;;;;13.30;61.90;;;;;;5112572;28;19929;-66
2022/08/02 13:26:31;;;;;;;;;;;13.30;61.60;;;;;;5116042;27;19912;-66
2022/08/02 13:28:57;;;;;;;;;;;13.30;62.40;;;;;;5102405;27;19907;-66
2022/08/02 13:31:24;;;;;;;;;;;13.30;62.00;;;;;;5101148;27;19947;-66
2022/08/02 13:33:50;;;;;;;;;;;13.30;61.90;;;;;;5113148;27;20337;-66
2022/08/02 13:36:17;;;;;;;;;;;13.30;63.00;;;;;;5100449;28;20277;-66
2022/08/02 13:38:44;;;;;;;;;;;13.20;63.10;;;;;;5116012;28;20303;-66
2022/08/02 13:41:12;;;;;;;;;;;13.20;63.40;;;;;;5114990;27;20269;-65
2022/08/02 13:43:39;;;;;;;;;;;13.20;63.00;;;;;;5119602;27;19903;-66
2022/08/02 13:46:05;;;;;;;;;;;13.20;62.60;;;;;;5113469;27;19916;-66
2022/08/02 13:48:32;;;;;;;;;;;13.20;62.50;;;;;;5109062;28;19904;-66
2022/08/02 13:50:59;;;;;;;;;;;13.20;62.70;;;;;;5095908;28;20296;-66
2022/08/02 13:53:25;;;;;;;;;;;13.20;62.80;;;;;;5109423;28;20081;-66
2022/08/02 13:55:52;;;;;;;;;;;13.20;63.60;;;;;;5102247;28;19953;-67
2022/08/02 13:58:18;;;;;;;;;;;13.10;62.80;;;;;;5128567;28;20038;-66
2022/08/02 14:00:45;;;;;;;;;;;13.10;62.90;;;;;;5131473;28;19911;-66
2022/08/02 14:03:12;;;;;;;;;;;13.10;63.20;;;;;;5125496;28;19911;-66
2022/08/02 14:05:39;;;;;;;;;;;13.10;63.20;;;;;;5130519;28;19949;-67
2022/08/02 14:08:05;;;;;;;;;;;13.00;62.70;;;;;;5098505;28;19907;-66
2022/08/02 14:10:32;;;;;;;;;;;13.00;63.80;;;;;;5131096;28;20362;-67
2022/08/02 14:12:58;;;;;;;;;;;13.00;63.50;;;;;;5122918;28;20682;-66
2022/08/02 14:15:25;;;;;;;;;;;12.90;63.00;;;;;;5119857;28;19904;-67
2022/08/02 14:17:51;;;;;;;;;;;12.90;63.30;;;;;;5125927;28;20415;-66
2022/08/02 14:28:52;;;;;;;;;;;13.00;63.40;;;;;;5086583;28;20438;-67
2022/08/02 14:31:18;;;;;;;;;;;12.90;63.10;;;;;;5112541;27;19912;-66
2022/08/02 14:33:45;;;;;;;;;;;12.90;63.20;;;;;;5109762;28;19903;-66
2022/08/02 14:36:11;;;;;;;;;;;12.90;62.40;;;;;;5112086;28;19934;-66
2022/08/02 14:38:38;;;;;;;;;;;12.90;62.40;;;;;;5108245;28;19904;-66
2022/08/02 14:41:05;;;;;;;;;;;12.90;63.30;;;;;;5094657;28;19904;-67
2022/08/02 14:46:16;;;;;;;;;;;13.00;63.30;;;;;;5104988;28;20384;-66
2022/08/02 14:48:42;;;;;;;;;;;12.90;62.30;;;;;;5097976;28;19908;-66
2022/08/02 14:51:09;;;;;;;;;;;12.90;62.60;;;;;;5111489;28;19904;-66
2022/08/02 14:53:35;;;;;;;;;;;13.00;62.20;;;;;;5090615;28;20281;-67
2022/08/02 14:56:02;;;;;;;;;;;12.90;62.10;;;;;;5100446;28;19907;-67
2022/08/02 14:58:28;;;;;;;;;;;12.90;62.50;;;;;;5098304;28;19908;-67
2022/08/02 15:00:55;;;;;;;;;;;12.90;62.00;;;;;;5109374;28;19945;-66
2022/08/02 15:03:21;;;;;;;;;;;12.90;62.60;;;;;;5085602;28;19912;-66
2022/08/02 15:05:48;;;;;;;;;;;12.90;61.70;;;;;;5106270;28;19912;-66
2022/08/02 15:08:14;;;;;;;;;;;12.80;62.80;;;;;;5103633;28;19908;-66
2022/08/02 15:10:41;;;;;;;;;;;12.80;62.80;;;;;;5114036;28;20269;-66
2022/08/02 15:13:08;;;;;;;;;;;12.80;62.80;;;;;;5115649;28;20296;-66
2022/08/02 15:15:34;;;;;;;;;;;12.80;61.30;;;;;;5115416;27;19907;-67
2022/08/02 15:18:01;;;;;;;;;;;12.90;60.40;;;;;;5109693;28;19986;-66
2022/08/02 15:20:28;;;;;;;;;;;12.90;59.90;;;;;;5109860;28;19919;-66
2022/08/02 15:22:54;;;;;;;;;;;12.90;59.80;;;;;;5078093;28;19907;-66
2022/08/02 15:25:21;;;;;;;;;;;13.00;61.00;;;;;;5115040;28;19926;-66
2022/08/02 15:27:47;;;;;;;;;;;13.00;62.00;;;;;;5106275;28;20730;-66
2022/08/02 15:30:14;;;;;;;;;;;12.90;61.50;;;;;;5099553;28;19916;-66
2022/08/02 15:32:41;;;;;;;;;;;12.90;61.40;;;;;;5110724;28;19903;-67
2022/08/02 15:35:07;;;;;;;;;;;12.90;60.40;;;;;;5112310;28;19903;-65
2022/08/02 15:37:34;;;;;;;;;;;13.00;59.00;;;;;;5098754;28;20007;-65
2022/08/02 15:40:00;;;;;;;;;;;12.90;58.90;;;;;;5102509;28;19908;-65
2022/08/02 15:42:27;;;;;;;;;;;13.00;59.70;;;;;;5113402;28;19990;-67
2022/08/02 15:44:53;;;;;;;;;;;13.00;58.80;;;;;;5084919;28;19923;-65
2022/08/02 15:47:21;;;;;;;;;;;13.10;59.00;;;;;;5113153;28;20341;-65
2022/08/02 15:49:47;;;;;;;;;;;13.10;58.70;;;;;;5102601;28;19914;-65
2022/08/02 15:52:14;;;;;;;;;;;13.00;59.10;;;;;;5103150;28;19923;-65
2022/08/02 15:54:40;;;;;;;;;;;13.10;58.30;;;;;;5094686;28;19912;-65
2022/08/02 15:57:07;;;;;;;;;;;13.10;59.00;;;;;;5102037;28;19912;-65
2022/08/02 15:59:33;;;;;;;;;;;13.10;59.40;;;;;;5086685;28;20341;-65
2022/08/02 16:02:00;;;;;;;;;;;13.00;59.20;;;;;;5105152;28;19968;-65
2022/08/02 16:04:27;;;;;;;;;;;13.00;59.50;;;;;;5114664;28;19953;-65
2022/08/02 16:06:53;;;;;;;;;;;13.00;58.60;;;;;;5114243;28;19911;-65
2022/08/02 16:09:20;;;;;;;;;;;13.00;58.40;;;;;;5108601;28;19920;-65
2022/08/02 16:11:46;;;;;;;;;;;13.10;58.80;;;;;;5107862;28;20024;-66
2022/08/02 16:14:13;;;;;;;;;;;13.10;57.60;;;;;;5092233;28;20277;-65
2022/08/02 16:16:39;;;;;;;;;;;13.10;57.60;;;;;;5111718;28;20339;-66
2022/08/02 16:19:06;;;;;;;;;;;13.10;57.90;;;;;;5114008;28;19956;-65
2022/08/02 16:21:32;;;;;;;;;;;13.10;58.90;;;;;;5107956;28;19976;-65
2022/08/02 16:23:59;;;;;;;;;;;13.10;58.10;;;;;;5108882;28;19908;-65
2022/08/02 17:01:32;;;;;;;;;;;13.00;59.30;;;;;;5086582;28;20308;-66
2022/08/02 17:03:59;;;;;;;;;;;12.90;59.60;;;;;;5130639;27;19960;-66
2022/08/02 17:06:25;;;;;;;;;;;12.80;59.90;;;;;;5109818;27;19912;-66
2022/08/02 17:08:54;;;;;;;;;;;12.80;60.40;;;;;;5092223;27;20321;-66
2022/08/02 17:11:20;;;;;;;;;;;12.80;60.80;;;;;;5101662;27;20009;-66
2022/08/02 17:13:51;;;;;;;;;;;12.70;61.10;;;;;;5133159;27;20431;-66
2022/08/02 17:16:18;;;;;;;;;;;12.70;61.30;;;;;;5133530;27;19910;-66
2022/08/02 17:18:44;;;;;;;;;;;12.70;61.90;;;;;;5115387;27;19907;-66
2022/08/02 17:21:11;;;;;;;;;;;12.60;61.90;;;;;;5094806;28;19950;-66
2022/08/02 17:23:37;;;;;;;;;;;12.70;62.00;;;;;;5109793;28;19908;-66
2022/08/02 17:26:04;;;;;;;;;;;12.60;61.60;;;;;;5112954;28;19920;-66
2022/08/02 17:28:30;;;;;;;;;;;12.60;61.70;;;;;;5093907;28;19904;-66
2022/08/02 17:30:57;;;;;;;;;;;12.50;61.10;;;;;;5110165;28;19942;-66
2022/08/02 17:33:24;;;;;;;;;;;12.50;61.20;;;;;;5092583;28;20288;-66
2022/08/02 17:35:50;;;;;;;;;;;12.50;61.30;;;;;;5110893;28;19903;-66
2022/08/02 17:38:17;;;;;;;;;;;12.50;61.60;;;;;;5111074;28;19951;-66
2022/08/02 17:40:43;;;;;;;;;;;12.50;61.60;;;;;;5089970;28;19919;-66
2022/08/02 17:43:10;;;;;;;;;;;12.50;61.30;;;;;;5098523;28;19984;-66
2022/08/02 17:45:37;;;;;;;;;;;12.50;62.00;;;;;;5106136;28;19923;-66
2022/08/02 17:48:03;;;;;;;;;;;12.40;61.80;;;;;;5091591;28;19962;-66
2022/08/02 17:50:30;;;;;;;;;;;12.40;62.30;;;;;;5093093;28;20317;-65
2022/08/02 17:52:57;;;;;;;;;;;12.40;62.00;;;;;;5110137;28;20002;-66
2022/08/02 17:55:23;;;;;;;;;;;12.50;61.80;;;;;;5091954;28;19916;-65
2022/08/02 17:57:50;;;;;;;;;;;12.40;61.60;;;;;;5105303;28;19919;-65
2022/08/02 18:00:41;;;;;;;;;;;12.40;62.00;;;;;;5104220;28;20022;-65
2022/08/02 18:03:08;;;;;;;;;;;12.40;62.20;;;;;;5055576;28;20348;-66
2022/08/02 18:05:35;;;;;;;;;;;12.40;62.20;;;;;;5069457;28;20377;-66
2022/08/02 18:08:02;;;;;;;;;;;12.40;62.00;;;;;;5090624;28;20001;-65
2022/08/02 18:10:28;;;;;;;;;;;12.40;61.90;;;;;;5072216;28;19912;-65
2022/08/02 18:12:55;;;;;;;;;;;12.40;61.90;;;;;;5090258;28;19930;-66
2022/08/02 18:15:21;;;;;;;;;;;12.40;62.00;;;;;;5070200;28;20021;-66
2022/08/02 18:17:48;;;;;;;;;;;12.40;61.70;;;;;;5090298;28;19935;-65
2022/08/02 18:20:14;;;;;;;;;;;12.50;61.60;;;;;;5072274;28;19908;-65
2022/08/02 18:22:41;;;;;;;;;;;12.50;61.80;;;;;;5072401;28;19979;-66
2022/08/02 18:25:08;;;;;;;;;;;12.50;61.20;;;;;;5090457;28;19969;-67
2022/08/02 18:27:34;;;;;;;;;;;12.50;61.90;;;;;;5072334;28;19912;-66
2022/08/02 18:30:01;;;;;;;;;;;12.50;61.30;;;;;;5072544;28;19911;-66
2022/08/02 18:32:27;;;;;;;;;;;12.60;60.80;;;;;;5063793;28;20481;-66
2022/08/02 18:34:54;;;;;;;;;;;12.60;60.90;;;;;;5074248;28;19907;-66
2022/08/02 18:37:20;;;;;;;;;;;12.60;61.20;;;;;;5072271;28;19939;-66
2022/08/02 18:39:48;;;;;;;;;;;12.70;61.50;;;;;;5072818;28;20028;-66
2022/08/02 18:42:15;;;;;;;;;;;12.70;61.30;;;;;;5094104;28;20374;-66
2022/08/02 18:44:43;;;;;;;;;;;12.70;61.50;;;;;;5093242;28;20404;-66
2022/08/02 18:47:10;;;;;;;;;;;12.70;61.50;;;;;;5093540;28;19908;-66
2022/08/02 18:49:36;;;;;;;;;;;12.70;61.80;;;;;;5093887;28;19970;-66
2022/08/02 18:52:03;;;;;;;;;;;12.70;62.50;;;;;;5092585;28;19912;-66
2022/08/02 18:54:30;;;;;;;;;;;12.70;62.40;;;;;;5075217;28;20018;-66
2022/08/02 18:56:57;;;;;;;;;;;12.70;62.70;;;;;;5073457;28;19927;-66
2022/08/02 18:59:23;;;;;;;;;;;12.70;62.50;;;;;;5088415;28;19912;-66
2022/08/02 19:04:21;;;;;;;;;;;12.70;61.80;;;;;;5087803;28;19922;-66
2022/08/02 19:06:48;;;;;;;;;;;12.70;61.70;;;;;;5091601;28;19924;-66
2022/08/02 19:09:14;;;;;;;;;;;12.80;61.60;;;;;;5091948;28;19943;-66
2022/08/02 19:11:41;;;;;;;;;;;12.80;61.70;;;;;;5093242;28;19908;-65
2022/08/02 19:14:08;;;;;;;;;;;12.80;62.00;;;;;;5089472;28;20433;-66
2022/08/02 19:16:34;;;;;;;;;;;12.70;62.40;;;;;;5084582;28;19912;-66
2022/08/02 19:19:03;;;;;;;;;;;12.80;62.20;;;;;;5091522;28;19908;-69
2022/08/02 19:21:30;;;;;;;;;;;12.80;62.50;;;;;;5092067;28;19919;-66
2022/08/02 19:23:56;;;;;;;;;;;12.80;62.70;;;;;;5089500;28;19957;-66
2022/08/02 19:26:23;;;;;;;;;;;12.70;62.90;;;;;;5090881;28;19912;-66
2022/08/02 19:28:49;;;;;;;;;;;12.70;63.20;;;;;;5091755;28;20021;-66
2022/08/02 19:31:16;;;;;;;;;;;12.70;63.00;;;;;;5092385;28;19911;-66
2022/08/02 19:33:43;;;;;;;;;;;12.70;63.00;;;;;;5090501;28;20006;-66
2022/08/02 19:36:09;;;;;;;;;;;12.70;63.30;;;;;;5095678;28;19990;-66
2022/08/02 19:38:36;;;;;;;;;;;12.80;63.60;;;;;;5090736;28;19961;-66
2022/08/02 19:41:04;;;;;;;;;;;12.80;63.50;;;;;;5092791;28;20002;-66
2022/08/02 19:43:30;;;;;;;;;;;12.80;63.30;;;;;;5092209;28;19915;-67
2022/08/02 19:45:57;;;;;;;;;;;12.80;63.30;;;;;;5092296;28;20254;-66
2022/08/02 19:48:23;;;;;;;;;;;12.80;63.40;;;;;;5105986;28;19916;-65
2022/08/02 19:50:50;;;;;;;;;;;12.80;63.90;;;;;;5088341;28;19904;-66
2022/08/02 19:53:17;;;;;;;;;;;12.80;64.20;;;;;;5073430;22;19977;-72
2022/08/02 19:55:43;;;;;;;;;;;12.80;64.20;;;;;;5072248;28;19916;-70
2022/08/02 19:58:10;;;;;;;;;;;12.80;64.60;;;;;;5069117;28;19955;-70
2022/08/02 20:00:36;;;;;;;;;;;12.80;64.60;;;;;;5071553;28;19908;-70
2022/08/02 20:03:03;;;;;;;;;;;12.80;65.00;;;;;;5067904;28;19913;-70
2022/08/02 20:05:29;;;;;;;;;;;12.80;65.30;;;;;;5049325;28;20279;-70
2022/08/02 20:07:56;;;;;;;;;;;12.80;65.00;;;;;;5052457;28;20023;-70
2022/08/02 20:10:22;;;;;;;;;;;12.80;64.90;;;;;;5051707;28;20007;-70
2022/08/02 20:12:49;;;;;;;;;;;12.80;65.00;;;;;;5052068;28;19979;-70
2022/08/02 20:15:16;;;;;;;;;;;12.90;65.20;;;;;;5051365;28;19909;-70
2022/08/02 20:17:42;;;;;;;;;;;12.90;64.80;;;;;;5041469;28;20380;-70
2022/08/02 20:20:09;;;;;;;;;;;12.90;64.80;;;;;;5051956;28;19935;-69
2022/08/02 20:23:22;;;;;;;;;;;12.90;64.80;;;;;;5051888;28;19909;-70
2022/08/02 20:25:23;;;;;;;;;;;12.90;64.40;;;;;;5046985;28;19927;-68
2022/08/02 20:27:49;;;;;;;;;;;12.90;64.80;;;;;;5051754;28;19917;-71
2022/08/02 20:30:16;;;;;;;;;;;12.90;64.30;;;;;;5051763;28;19908;-72
2022/08/02 20:32:43;;;;;;;;;;;12.90;64.10;;;;;;5051615;28;20310;-71
2022/08/02 20:35:09;;;;;;;;;;;12.90;64.10;;;;;;5049510;28;19919;-69
2022/08/02 20:37:36;;;;;;;;;;;12.90;64.20;;;;;;5051812;28;19916;-71
2022/08/02 20:40:03;;;;;;;;;;;13.00;64.00;;;;;;5049677;28;19904;-69
2022/08/02 20:42:30;;;;;;;;;;;13.00;64.10;;;;;;5044743;28;19917;-69
2022/08/02 20:44:57;;;;;;;;;;;12.90;63.80;;;;;;5045505;28;19912;-71
2022/08/02 20:47:23;;;;;;;;;;;12.90;63.70;;;;;;5049041;28;20259;-70
2022/08/02 20:52:34;;;;;;;;;;;13.00;64.50;;;;;;5050381;28;19958;-70
2022/08/02 21:07:29;;;;;;;;;;;13.10;63.50;;;;;;5047202;28;19935;-70
2022/08/02 21:09:55;;;;;;;;;;;13.10;63.90;;;;;;5050422;28;19912;-70
2022/08/02 21:12:22;;;;;;;;;;;13.10;63.90;;;;;;5050373;28;19909;-70
2022/08/02 21:14:48;;;;;;;;;;;13.10;63.80;;;;;;5050279;28;20464;-70
2022/08/02 21:17:15;;;;;;;;;;;13.10;63.70;;;;;;5032437;28;20286;-70
2022/08/02 21:19:41;;;;;;;;;;;13.10;63.60;;;;;;5050672;28;20329;-69
2022/08/02 21:22:08;;;;;;;;;;;13.20;63.70;;;;;;5032603;28;20286;-71
2022/08/02 21:24:35;;;;;;;;;;;13.10;63.50;;;;;;5032153;28;20287;-71
2022/08/02 21:27:01;;;;;;;;;;;13.10;63.90;;;;;;5050010;28;20378;-71
2022/08/02 21:29:28;;;;;;;;;;;13.20;63.20;;;;;;5049232;28;20351;-71
2022/08/02 21:31:54;;;;;;;;;;;13.20;63.40;;;;;;5050167;28;19911;-71
2022/08/02 21:34:21;;;;;;;;;;;13.30;63.60;;;;;;5050187;28;19915;-71
2022/08/02 21:36:47;;;;;;;;;;;13.30;63.60;;;;;;5048412;28;19999;-71
2022/08/02 21:39:14;;;;;;;;;;;13.30;63.50;;;;;;5049934;28;19912;-71
2022/08/02 21:41:40;;;;;;;;;;;13.30;63.20;;;;;;5032121;28;20286;-69
2022/08/02 21:44:07;;;;;;;;;;;13.30;63.70;;;;;;5031744;28;19909;-69
2022/08/02 21:46:34;;;;;;;;;;;13.40;63.30;;;;;;5031398;28;19964;-69
2022/08/02 21:49:01;;;;;;;;;;;13.40;62.80;;;;;;5031532;28;19919;-69
2022/08/02 21:51:27;;;;;;;;;;;13.50;62.90;;;;;;5031495;28;19904;-68
2022/08/02 21:53:54;;;;;;;;;;;13.60;62.50;;;;;;5050107;28;19944;-69
2022/08/02 21:56:20;;;;;;;;;;;13.70;62.50;;;;;;5049921;28;20321;-69
2022/08/02 21:58:47;;;;;;;;;;;13.70;62.30;;;;;;5031820;28;20275;-69
2022/08/02 22:01:13;;;;;;;;;;;13.70;62.70;;;;;;5049485;28;20393;-70
2022/08/02 22:03:42;;;;;;;;;;;13.80;63.50;;;;;;5015261;28;20371;-69
2022/08/02 22:06:33;;;;;;;;;;;13.80;63.50;;;;;;5048284;28;20329;-69
2022/08/02 22:09:00;;;;;;;;;;;13.80;63.50;;;;;;5068731;28;19926;-69
2022/08/02 22:11:27;;;;;;;;;;;13.80;63.00;;;;;;5088806;28;19908;-69
2022/08/02 22:13:53;;;;;;;;;;;13.90;63.20;;;;;;5089763;28;19904;-69
2022/08/02 22:16:21;;;;;;;;;;;13.90;63.00;;;;;;5092303;28;19995;-69
2022/08/02 22:18:47;;;;;;;;;;;14.00;63.20;;;;;;5093778;28;19908;-69
2022/08/02 22:21:14;;;;;;;;;;;13.90;63.10;;;;;;5093994;28;20007;-69
2022/08/02 22:23:41;;;;;;;;;;;13.90;63.30;;;;;;5093788;28;19908;-69
2022/08/02 22:26:07;;;;;;;;;;;13.90;63.20;;;;;;5093549;28;19916;-69
2022/08/02 22:28:34;;;;;;;;;;;13.90;63.40;;;;;;5093612;28;19910;-69
2022/08/02 22:31:03;;;;;;;;;;;13.90;63.30;;;;;;5093277;28;20312;-69
2022/08/02 22:36:17;;;;;;;;;;;14.00;63.60;;;;;;5092371;28;20008;-69
2022/08/02 22:38:44;;;;;;;;;;;14.00;63.80;;;;;;5091440;28;20318;-69
2022/08/02 22:41:11;;;;;;;;;;;14.00;63.90;;;;;;5093404;28;20112;-69
2022/08/02 22:43:38;;;;;;;;;;;14.00;63.40;;;;;;5075627;28;19908;-69
2022/08/02 22:46:04;;;;;;;;;;;14.00;63.60;;;;;;5093431;28;19912;-69
2022/08/02 22:48:31;;;;;;;;;;;14.10;64.10;;;;;;5093523;28;19904;-69
2022/08/02 22:50:58;;;;;;;;;;;14.20;63.80;;;;;;5075846;28;19908;-69
2022/08/02 22:53:24;;;;;;;;;;;14.10;64.20;;;;;;5093712;28;20358;-69
2022/08/02 22:55:51;;;;;;;;;;;14.20;64.50;;;;;;5093945;28;19908;-70
2022/08/02 22:58:17;;;;;;;;;;;14.10;64.40;;;;;;5093888;28;19951;-69
2022/08/02 23:00:44;;;;;;;;;;;14.20;64.60;;;;;;5093764;28;19915;-69
2022/08/02 23:03:10;;;;;;;;;;;14.20;64.30;;;;;;5093141;28;20326;-69
2022/08/02 23:05:37;;;;;;;;;;;14.20;64.60;;;;;;5093440;28;19962;-69
2022/08/02 23:10:36;;;;;;;;;;;14.30;64.60;;;;;;5078762;28;19927;-69
2022/08/02 23:13:02;;;;;;;;;;;14.30;65.10;;;;;;5074803;28;19915;-69
2022/08/02 23:19:49;;;;;;;;;;;14.30;64.90;;;;;;5074572;28;19978;-69
2022/08/02 23:21:00;;;;;;;;;;;14.30;65.10;;;;;;5072025;28;19970;-69
2022/08/02 23:23:26;;;;;;;;;;;14.40;64.70;;;;;;5074385;28;19905;-69
2022/08/02 23:25:53;;;;;;;;;;;14.40;64.90;;;;;;5073711;28;19912;-69
2022/08/02 23:28:19;;;;;;;;;;;14.50;64.90;;;;;;5073987;28;19904;-69
2022/08/02 23:30:46;;;;;;;;;;;14.50;64.50;;;;;;5074405;28;19908;-69
2022/08/02 23:33:13;;;;;;;;;;;14.60;64.50;;;;;;5074442;28;19974;-69
2022/08/02 23:35:39;;;;;;;;;;;14.60;64.10;;;;;;5074118;28;19904;-69
2022/08/02 23:38:06;;;;;;;;;;;14.60;64.40;;;;;;5074062;28;19904;-69
2022/08/02 23:40:32;;;;;;;;;;;14.70;63.80;;;;;;5071007;28;19916;-69
2022/08/02 23:42:59;;;;;;;;;;;14.70;63.60;;;;;;5072178;28;19913;-70
2022/08/02 23:45:26;;;;;;;;;;;14.70;64.50;;;;;;5072374;28;20371;-70
2022/08/02 23:47:52;;;;;;;;;;;14.70;65.50;;;;;;5072435;28;19904;-69
2022/08/02 23:50:19;;;;;;;;;;;14.70;65.10;;;;;;5072051;28;19982;-69
2022/08/02 23:52:45;;;;;;;;;;;14.80;65.50;;;;;;5071264;28;19904;-69
2022/08/02 23:55:12;;;;;;;;;;;14.80;65.00;;;;;;5070983;28;19904;-69
2022/08/02 23:57:38;;;;;;;;;;;14.90;64.80;;;;;;5072602;28;19904;-70
